Time;durP1;ratioP1;P1;durP2;ratioP2;P2;SDS_P1;SDS_P2;PMS_P1;PMS_P2;Temp;Humidity;BMP_temperature;BMP_pressure;BME280_temperature;BME280_humidity;BME280_pressure;Samples;Min_cycle;Max_cycle;Signal;HPM_P1;HPM_P2
2021/11/18 00:00:36;;;;;;;9.55;2.13;;;6.50;99.90;;;;;;5026961;28;20025;-75
2021/11/18 00:03:03;;;;;;;17.45;2.35;;;6.40;99.90;;;;;;5026917;28;20363;-77
2021/11/18 00:05:30;;;;;;;6.03;1.98;;;6.40;99.90;;;;;;5025412;28;20457;-78
2021/11/18 00:07:56;;;;;;;8.30;1.17;;;6.40;99.90;;;;;;5026665;28;20037;-77
2021/11/18 00:10:26;;;;;;;6.35;2.17;;;6.40;99.90;;;;;;5026549;28;20033;-77
2021/11/18 00:12:53;;;;;;;4.45;1.48;;;6.40;99.90;;;;;;5026486;28;20026;-77
2021/11/18 00:15:19;;;;;;;4.63;1.15;;;6.40;99.90;;;;;;5026730;28;20057;-76
2021/11/18 00:17:45;;;;;;;6.53;1.17;;;6.30;99.90;;;;;;5025466;28;20032;-77
2021/11/18 00:20:14;;;;;;;12.27;1.23;;;6.40;99.90;;;;;;5025407;28;20117;-74
2021/11/18 00:22:44;;;;;;;5.25;1.77;;;6.40;99.90;;;;;;5026604;28;20061;-74
2021/11/18 00:25:12;;;;;;;9.35;2.03;;;6.40;99.90;;;;;;5026545;28;20076;-74
2021/11/18 00:27:38;;;;;;;2.53;1.05;;;6.30;99.90;;;;;;5026519;28;20034;-75
2021/11/18 00:30:07;;;;;;;7.63;1.25;;;6.40;99.90;;;;;;5024980;28;20517;-75
2021/11/18 00:32:33;;;;;;;3.35;1.50;;;6.40;99.90;;;;;;5024604;28;20058;-76
2021/11/18 00:34:58;;;;;;;7.90;2.55;;;6.40;99.90;;;;;;5024898;28;20033;-76
2021/11/18 00:37:24;;;;;;;9.88;1.10;;;6.50;99.90;;;;;;5025772;28;20447;-76
2021/11/18 00:39:49;;;;;;;3.28;1.40;;;6.50;99.90;;;;;;5026312;28;20034;-73
2021/11/18 00:42:16;;;;;;;3.97;1.20;;;6.50;99.90;;;;;;5026352;28;20045;-76
2021/11/18 00:44:41;;;;;;;3.03;1.05;;;6.50;99.90;;;;;;5024969;28;20040;-75
2021/11/18 00:47:07;;;;;;;13.57;2.13;;;6.60;99.90;;;;;;5026213;28;20061;-76
2021/11/18 00:49:33;;;;;;;5.32;0.80;;;6.60;99.90;;;;;;5026220;28;20371;-76
2021/11/18 00:51:58;;;;;;;1.33;1.02;;;6.70;99.90;;;;;;5024797;28;20092;-75
2021/11/18 00:54:24;;;;;;;7.63;1.20;;;6.60;99.90;;;;;;5026598;28;20041;-76
2021/11/18 00:56:49;;;;;;;12.77;1.25;;;6.70;99.90;;;;;;5024998;28;20053;-76
2021/11/18 00:59:15;;;;;;;2.70;1.10;;;6.80;99.90;;;;;;5025005;28;20080;-74
2021/11/18 01:01:45;;;;;;;11.15;2.28;;;6.80;99.90;;;;;;5026656;28;20125;-72
2021/11/18 01:04:15;;;;;;;6.22;1.15;;;6.80;99.90;;;;;;5041356;28;20044;-76
2021/11/18 01:06:40;;;;;;;6.07;1.52;;;6.80;99.90;;;;;;5043492;28;20386;-74
2021/11/18 01:09:07;;;;;;;4.53;1.25;;;6.80;99.90;;;;;;5041998;28;20030;-74
2021/11/18 01:11:33;;;;;;;7.22;1.15;;;6.80;99.90;;;;;;5042587;28;20045;-75
2021/11/18 01:14:00;;;;;;;5.15;1.67;;;6.80;99.90;;;;;;5045282;28;20084;-74
2021/11/18 01:16:28;;;;;;;15.65;1.55;;;6.80;99.90;;;;;;5042037;28;20049;-76
2021/11/18 01:18:54;;;;;;;8.43;1.52;;;6.80;99.90;;;;;;5043676;28;20028;-75
2021/11/18 01:21:22;;;;;;;3.28;1.05;;;6.80;99.90;;;;;;5045213;28;20053;-74
2021/11/18 01:23:52;;;;;;;3.40;1.63;;;6.80;99.90;;;;;;5042111;28;20436;-78
2021/11/18 01:26:20;;;;;;;11.02;1.83;;;6.80;99.90;;;;;;5045139;28;20017;-75
2021/11/18 01:28:48;;;;;;;9.88;1.48;;;6.80;99.90;;;;;;5045185;28;20025;-76
2021/11/18 01:31:15;;;;;;;7.35;1.45;;;6.90;99.90;;;;;;5044921;28;20120;-73
2021/11/18 01:33:42;;;;;;;7.10;1.27;;;6.90;99.90;;;;;;5042173;28;20022;-75
2021/11/18 01:36:08;;;;;;;4.32;0.98;;;6.90;99.90;;;;;;5043268;28;20041;-72
2021/11/18 01:38:35;;;;;;;14.00;2.20;;;7.00;99.90;;;;;;5044766;28;20028;-77
2021/11/18 01:41:05;;;;;;;7.38;2.15;;;6.90;99.90;;;;;;5043454;28;20021;-75
2021/11/18 01:43:35;;;;;;;13.73;2.40;;;7.00;99.90;;;;;;5043454;28;20083;-75
2021/11/18 01:46:06;;;;;;;4.78;1.40;;;7.00;99.90;;;;;;5044748;28;20453;-75
2021/11/18 01:48:31;;;;;;;17.30;3.22;;;7.20;99.90;;;;;;5043688;28;20029;-72
2021/11/18 01:50:57;;;;;;;7.43;2.38;;;7.00;99.90;;;;;;5044614;28;20030;-74
2021/11/18 01:53:29;;;;;;;14.00;1.50;;;7.00;99.90;;;;;;5044649;28;20402;-75
2021/11/18 01:55:54;;;;;;;8.52;1.45;;;7.10;99.90;;;;;;5043058;28;20025;-78
2021/11/18 01:58:22;;;;;;;10.18;2.08;;;7.10;99.90;;;;;;5044593;28;20025;-77
2021/11/18 02:00:55;;;;;;;4.85;1.70;;;7.10;99.90;;;;;;5044366;28;20021;-76
2021/11/18 02:03:25;;;;;;;3.28;0.90;;;7.10;99.90;;;;;;5039473;28;20022;-77
2021/11/18 02:06:06;;;;;;;2.45;1.40;;;7.10;99.90;;;;;;5044363;28;20041;-79
2021/11/18 02:08:41;;;;;;;8.65;2.10;;;7.20;99.90;;;;;;5044300;28;20025;-75
2021/11/18 02:11:21;;;;;;;10.15;1.98;;;7.20;99.90;;;;;;5042916;28;20180;-75
2021/11/18 02:13:48;;;;;;;5.43;2.22;;;7.30;99.90;;;;;;5040610;28;20030;-77
2021/11/18 02:16:14;;;;;;;5.53;1.75;;;7.30;99.90;;;;;;5037527;28;20433;-77
2021/11/18 02:18:41;;;;;;;2.58;1.38;;;7.30;99.90;;;;;;5044409;28;20052;-76
2021/11/18 02:21:15;;;;;;;15.05;1.60;;;7.20;99.90;;;;;;5042747;28;20056;-78
2021/11/18 02:23:59;;;;;;;5.03;1.38;;;7.30;99.90;;;;;;5041375;28;20072;-77
2021/11/18 02:26:26;;;;;;;11.85;1.92;;;7.30;99.90;;;;;;5030435;28;20486;-76
2021/11/18 02:28:54;;;;;;;4.63;1.33;;;7.30;99.90;;;;;;5023364;28;20022;-74
2021/11/18 02:31:19;;;;;;;8.52;1.30;;;7.30;99.90;;;;;;5024611;28;20066;-74
2021/11/18 02:33:46;;;;;;;10.73;2.00;;;7.30;99.90;;;;;;5024816;28;20030;-77
2021/11/18 02:36:12;;;;;;;18.67;2.03;;;7.20;99.90;;;;;;5023611;28;20026;-75
2021/11/18 02:38:40;;;;;;;2.95;1.58;;;7.20;99.90;;;;;;5023797;28;20054;-73
2021/11/18 02:41:13;;;;;;;4.53;1.52;;;7.20;99.90;;;;;;5023547;28;20445;-72
2021/11/18 02:43:39;;;;;;;3.13;1.52;;;7.20;99.90;;;;;;5024959;28;20037;-76
2021/11/18 02:46:05;;;;;;;20.10;2.70;;;7.20;99.90;;;;;;5023525;28;20034;-75
2021/11/18 02:48:30;;;;;;;15.30;2.30;;;7.20;99.90;;;;;;5025073;28;20026;-75
2021/11/18 02:50:59;;;;;;;3.17;1.80;;;7.20;99.90;;;;;;5023533;28;20032;-73
2021/11/18 02:53:25;;;;;;;6.82;1.25;;;7.20;99.90;;;;;;5023244;28;20482;-76
2021/11/18 02:55:53;;;;;;;3.65;1.52;;;7.20;99.90;;;;;;5024968;28;20028;-75
2021/11/18 02:58:20;;;;;;;3.78;1.38;;;7.10;99.90;;;;;;5025518;28;20418;-76
2021/11/18 03:01:05;;;;;;;9.68;1.90;;;7.10;99.90;;;;;;5028693;28;20025;-75
2021/11/18 03:03:30;;;;;;;8.98;1.85;;;7.10;99.90;;;;;;5029268;28;20034;-75
2021/11/18 03:05:57;;;;;;;9.00;1.83;;;7.10;99.90;;;;;;5028458;28;20045;-77
2021/11/18 03:08:24;;;;;;;16.08;2.05;;;7.10;99.90;;;;;;5027275;28;20026;-75
2021/11/18 03:10:52;;;;;;;15.23;2.05;;;7.10;99.90;;;;;;5032513;28;20025;-77
2021/11/18 03:13:20;;;;;;;5.63;2.03;;;7.10;99.90;;;;;;5048375;28;20101;-76
2021/11/18 03:15:46;;;;;;;7.78;2.20;;;7.00;99.90;;;;;;5046973;28;20022;-73
2021/11/18 03:18:13;;;;;;;3.30;1.85;;;7.10;99.90;;;;;;5048283;28;20494;-77
2021/11/18 03:20:39;;;;;;;4.78;1.48;;;7.00;99.90;;;;;;5048385;28;20108;-73
2021/11/18 03:23:05;;;;;;;3.45;1.63;;;7.00;99.90;;;;;;5048041;28;20060;-75
2021/11/18 03:25:35;;;;;;;15.40;2.05;;;7.00;99.90;;;;;;5047915;28;20076;-75
2021/11/18 03:28:02;;;;;;;2.20;1.33;;;7.00;99.90;;;;;;5046612;28;20029;-75
2021/11/18 03:30:32;;;;;;;7.63;2.80;;;7.00;99.90;;;;;;5047624;28;20032;-75
2021/11/18 03:33:04;;;;;;;8.93;2.20;;;7.00;99.90;;;;;;5047444;28;20049;-77
2021/11/18 03:35:29;;;;;;;6.80;2.05;;;7.00;99.90;;;;;;5046361;28;20052;-77
2021/11/18 03:37:56;;;;;;;8.13;2.40;;;7.00;99.90;;;;;;5047694;28;20025;-76
2021/11/18 03:40:23;;;;;;;7.45;2.00;;;7.10;99.90;;;;;;5047795;28;20025;-76
2021/11/18 03:42:50;;;;;;;15.50;3.08;;;7.10;99.90;;;;;;5047711;28;20021;-76
2021/11/18 03:45:17;;;;;;;3.50;1.27;;;7.00;99.90;;;;;;5047527;28;20035;-76
2021/11/18 03:47:44;;;;;;;8.15;2.05;;;7.00;99.90;;;;;;5047660;28;20037;-74
2021/11/18 03:50:12;;;;;;;12.40;2.72;;;7.10;99.90;;;;;;5047380;28;20026;-76
2021/11/18 03:52:38;;;;;;;13.32;3.17;;;7.10;99.90;;;;;;5046095;28;20041;-75
2021/11/18 03:55:16;;;;;;;7.85;2.15;;;7.10;99.90;;;;;;5045920;28;20034;-77
2021/11/18 03:57:42;;;;;;;26.73;2.80;;;7.10;99.90;;;;;;5047726;28;20026;-76
2021/11/18 04:00:18;;;;;;;4.15;1.65;;;7.20;99.90;;;;;;5046170;28;20033;-74
2021/11/18 04:02:45;;;;;;;8.10;1.98;;;7.20;99.90;;;;;;5047397;28;20106;-76
2021/11/18 04:05:12;;;;;;;3.25;2.10;;;7.20;99.90;;;;;;5047311;28;20017;-77
2021/11/18 04:07:40;;;;;;;9.45;2.30;;;7.20;99.90;;;;;;5045855;28;20037;-76
2021/11/18 04:10:10;;;;;;;10.25;2.15;;;7.20;99.90;;;;;;5045388;28;20029;-77
2021/11/18 04:12:37;;;;;;;4.38;1.67;;;7.20;99.90;;;;;;5046568;28;20575;-74
2021/11/18 04:15:04;;;;;;;13.45;2.30;;;7.20;99.90;;;;;;5047196;28;20018;-76
2021/11/18 04:17:30;;;;;;;12.63;2.63;;;7.20;99.90;;;;;;5047044;28;20029;-75
2021/11/18 04:19:56;;;;;;;9.55;2.22;;;7.20;99.90;;;;;;5045511;28;20071;-75
2021/11/18 04:22:21;;;;;;;10.55;2.63;;;7.30;99.90;;;;;;5045337;28;20053;-75
2021/11/18 04:24:47;;;;;;;8.13;3.22;;;7.30;99.90;;;;;;5046792;28;20033;-75
2021/11/18 04:27:14;;;;;;;8.30;2.97;;;7.30;99.90;;;;;;5045667;28;20037;-76
2021/11/18 04:29:40;;;;;;;19.40;2.95;;;7.30;99.90;;;;;;5046878;28;20071;-73
2021/11/18 04:32:14;;;;;;;9.52;2.20;;;7.30;99.90;;;;;;5046406;28;20288;-74
2021/11/18 04:34:40;;;;;;;10.32;3.00;;;7.40;99.90;;;;;;5046923;28;20106;-74
2021/11/18 04:37:06;;;;;;;12.00;3.17;;;7.30;99.90;;;;;;5046710;28;20030;-75
2021/11/18 04:39:39;;;;;;;14.32;2.33;;;7.40;99.90;;;;;;5045104;28;20037;-74
2021/11/18 04:42:06;;;;;;;10.25;2.00;;;7.30;99.90;;;;;;5046749;28;20041;-74
2021/11/18 04:44:35;;;;;;;9.75;3.67;;;7.40;99.90;;;;;;5045099;28;20128;-74
2021/11/18 04:47:06;;;;;;;5.22;2.28;;;7.40;99.90;;;;;;5045041;28;20124;-74
2021/11/18 04:49:31;;;;;;;9.10;2.22;;;7.40;99.90;;;;;;5046379;28;20022;-75
2021/11/18 04:51:57;;;;;;;11.80;1.85;;;7.40;99.90;;;;;;5045058;28;20072;-73
2021/11/18 04:54:23;;;;;;;21.08;3.60;;;7.40;99.90;;;;;;5044938;28;20025;-74
2021/11/18 04:56:55;;;;;;;6.07;1.95;;;7.50;99.90;;;;;;5045272;28;20029;-75
2021/11/18 04:59:21;;;;;;;13.05;2.47;;;7.50;99.90;;;;;;5046106;28;20073;-76
2021/11/18 05:01:46;;;;;;;10.90;2.65;;;7.50;99.90;;;;;;5046466;28;20081;-75
2021/11/18 05:04:15;;;;;;;21.98;3.40;;;7.50;99.90;;;;;;5046486;28;20026;-74
2021/11/18 05:06:42;;;;;;;10.82;3.65;;;7.50;99.90;;;;;;5046392;28;20025;-74
2021/11/18 05:09:10;;;;;;;12.57;2.78;;;7.50;99.90;;;;;;5047421;28;20036;-75
2021/11/18 05:11:37;;;;;;;13.68;2.60;;;7.60;99.90;;;;;;5045625;28;20118;-73
2021/11/18 05:14:04;;;;;;;7.25;3.22;;;7.50;99.90;;;;;;5044758;28;20029;-75
2021/11/18 05:16:29;;;;;;;14.88;2.95;;;7.60;99.90;;;;;;5046454;28;20025;-76
2021/11/18 05:18:55;;;;;;;11.75;3.20;;;7.60;99.90;;;;;;5046224;28;20022;-74
2021/11/18 05:21:25;;;;;;;18.48;2.78;;;7.60;99.90;;;;;;5045604;28;20033;-74
2021/11/18 05:23:51;;;;;;;3.63;2.45;;;7.60;99.90;;;;;;5044890;28;20028;-76
2021/11/18 05:26:19;;;;;;;22.30;3.42;;;7.60;99.90;;;;;;5045656;28;20501;-74
2021/11/18 05:28:46;;;;;;;13.43;2.85;;;7.60;99.90;;;;;;5045585;28;20026;-77
2021/11/18 05:31:18;;;;;;;14.60;2.42;;;7.60;99.90;;;;;;5044246;28;20592;-78
2021/11/18 05:33:45;;;;;;;7.97;2.85;;;7.60;99.90;;;;;;5045652;28;20036;-76
2021/11/18 05:36:12;;;;;;;16.27;2.50;;;7.60;99.90;;;;;;5044627;28;20026;-74
2021/11/18 05:38:38;;;;;;;9.60;3.22;;;7.60;99.90;;;;;;5029499;28;20596;-75
2021/11/18 05:41:04;;;;;;;16.33;2.78;;;7.60;99.90;;;;;;5024349;28;20034;-75
2021/11/18 05:43:32;;;;;;;20.55;3.22;;;7.60;99.90;;;;;;5024332;28;20088;-74
2021/11/18 05:45:58;;;;;;;14.20;2.90;;;7.60;99.90;;;;;;5025540;28;20032;-73
2021/11/18 05:48:25;;;;;;;2.75;2.28;;;7.60;99.90;;;;;;5024123;28;20090;-72
2021/11/18 05:50:56;;;;;;;31.35;2.90;;;7.70;99.90;;;;;;5025455;28;20060;-76
2021/11/18 05:53:38;;;;;;;12.35;3.60;;;7.60;99.90;;;;;;5040256;28;20038;-76
2021/11/18 05:56:07;;;;;;;10.98;3.78;;;7.60;99.90;;;;;;5044104;28;20044;-75
2021/11/18 05:58:33;;;;;;;7.55;3.28;;;7.60;99.90;;;;;;5044914;28;20029;-75
2021/11/18 06:01:01;;;;;;;20.92;4.20;;;7.60;99.90;;;;;;5045196;28;20033;-78
2021/11/18 06:03:27;;;;;;;14.05;3.40;;;7.60;99.90;;;;;;5044868;28;20156;-76
2021/11/18 06:05:52;;;;;;;14.85;2.85;;;7.60;99.90;;;;;;5046281;28;20493;-75
2021/11/18 06:08:18;;;;;;;17.02;3.15;;;7.60;99.90;;;;;;5046299;28;20018;-73
2021/11/18 06:10:45;;;;;;;11.82;3.30;;;7.70;99.90;;;;;;5046202;28;20028;-77
2021/11/18 06:13:11;;;;;;;7.32;2.80;;;7.70;99.90;;;;;;5045790;28;20043;-74
2021/11/18 06:15:37;;;;;;;11.23;2.60;;;7.70;99.90;;;;;;5044373;28;20069;-75
2021/11/18 06:18:03;;;;;;;21.48;4.63;;;7.70;99.90;;;;;;5043642;28;20080;-76
2021/11/18 06:20:29;;;;;;;15.82;3.47;;;7.80;99.90;;;;;;5043183;28;20391;-75
2021/11/18 06:22:55;;;;;;;15.15;3.38;;;7.90;99.90;;;;;;5043315;28;20478;-76
2021/11/18 06:25:25;;;;;;;8.65;3.75;;;7.80;99.90;;;;;;5044681;28;20026;-74
2021/11/18 06:27:51;;;;;;;8.98;3.55;;;7.80;99.90;;;;;;5043528;28;20056;-75
2021/11/18 06:30:43;;;;;;;7.10;3.03;;;7.80;99.90;;;;;;5044423;28;20036;-76
2021/11/18 06:33:10;;;;;;;20.40;3.08;;;7.90;99.90;;;;;;5043093;28;20049;-74
2021/11/18 06:35:37;;;;;;;6.18;2.40;;;7.90;99.90;;;;;;5039549;28;20032;-75
2021/11/18 06:38:06;;;;;;;10.23;3.72;;;7.90;99.90;;;;;;5024810;28;20822;-74
2021/11/18 06:40:32;;;;;;;18.88;4.22;;;7.90;99.90;;;;;;5024823;28;20026;-73
2021/11/18 06:42:57;;;;;;;4.82;2.20;;;8.00;99.90;;;;;;5029180;28;20068;-75
2021/11/18 06:45:27;;;;;;;12.40;3.05;;;8.00;99.90;;;;;;5039946;28;20026;-75
2021/11/18 06:47:56;;;;;;;22.80;4.05;;;8.00;99.90;;;;;;5042771;28;20374;-75
2021/11/18 06:50:21;;;;;;;14.18;4.03;;;8.10;99.90;;;;;;5037243;28;20029;-74
2021/11/18 06:52:47;;;;;;;12.68;3.75;;;8.10;99.90;;;;;;5027220;28;20041;-76
2021/11/18 06:55:14;;;;;;;4.63;2.40;;;8.00;99.90;;;;;;5038775;28;20030;-74
2021/11/18 06:57:50;;;;;;;21.50;3.17;;;8.10;99.90;;;;;;5032881;28;20049;-74
2021/11/18 07:00:17;;;;;;;5.95;2.40;;;8.10;99.90;;;;;;5033628;28;20084;-76
2021/11/18 07:02:45;;;;;;;17.50;3.80;;;8.10;99.90;;;;;;5041988;28;20108;-79
2021/11/18 07:05:11;;;;;;;15.77;3.17;;;8.10;99.90;;;;;;5042436;28;20382;-72
2021/11/18 07:07:37;;;;;;;26.23;3.88;;;8.10;99.90;;;;;;5051524;28;20475;-75
2021/11/18 07:10:06;;;;;;;11.07;3.40;;;8.10;99.90;;;;;;5051732;28;20034;-74
2021/11/18 07:12:31;;;;;;;10.63;3.05;;;8.20;99.90;;;;;;5042387;28;20072;-75
2021/11/18 07:14:58;;;;;;;12.00;3.40;;;8.20;99.90;;;;;;5040737;28;20040;-74
2021/11/18 07:17:23;;;;;;;28.00;3.00;;;8.20;99.90;;;;;;5030717;28;20030;-74
2021/11/18 07:19:50;;;;;;;17.70;3.50;;;8.20;99.90;;;;;;5038731;28;20034;-77
2021/11/18 07:22:17;;;;;;;12.55;3.38;;;8.20;99.90;;;;;;5038899;28;20034;-73
2021/11/18 07:24:43;;;;;;;14.50;4.07;;;8.30;99.90;;;;;;5035256;28;20033;-76
2021/11/18 07:27:09;;;;;;;8.57;3.13;;;8.30;99.90;;;;;;5037948;28;20026;-71
2021/11/18 07:29:36;;;;;;;10.95;3.25;;;8.30;99.90;;;;;;5031745;28;20032;-79
2021/11/18 07:32:05;;;;;;;12.20;3.95;;;8.40;99.90;;;;;;5034326;28;20054;-74
2021/11/18 07:34:31;;;;;;;16.52;2.65;;;8.40;99.90;;;;;;5051236;28;20033;-76
2021/11/18 07:36:56;;;;;;;26.55;3.55;;;8.40;99.90;;;;;;5042924;28;20022;-75
2021/11/18 07:39:43;;;;;;;7.35;2.83;;;8.40;99.90;;;;;;5046881;28;20100;-76
2021/11/18 07:42:14;;;;;;;17.92;3.70;;;8.40;99.90;;;;;;5033547;28;20061;-76
2021/11/18 07:44:39;;;;;;;16.85;2.70;;;8.50;99.90;;;;;;5043289;28;20022;-73
2021/11/18 07:47:05;;;;;;;7.85;2.78;;;8.50;99.90;;;;;;5045643;28;20539;-77
2021/11/18 07:49:31;;;;;;;19.83;3.47;;;8.50;99.90;;;;;;5047631;28;20026;-77
2021/11/18 07:51:57;;;;;;;7.38;2.45;;;8.60;99.90;;;;;;5046509;28;20042;-73
2021/11/18 07:54:24;;;;;;;8.52;3.47;;;8.50;99.90;;;;;;5045539;28;20025;-74
2021/11/18 07:57:02;;;;;;;23.70;3.67;;;8.60;99.90;;;;;;5035116;28;20034;-77
2021/11/18 07:59:28;;;;;;;18.13;3.22;;;8.60;99.90;;;;;;5044879;28;20037;-74
2021/11/18 08:01:54;;;;;;;21.27;4.18;;;8.60;99.90;;;;;;5049688;28;20051;-73
2021/11/18 08:04:20;;;;;;;16.50;2.53;;;8.60;99.90;;;;;;5057248;28;20029;-75
2021/11/18 08:06:49;;;;;;;12.20;4.05;;;8.60;99.90;;;;;;5047507;28;20052;-77
2021/11/18 08:09:16;;;;;;;13.85;4.00;;;8.60;99.90;;;;;;5045993;28;20034;-78
2021/11/18 08:11:50;;;;;;;10.48;4.43;;;8.70;99.90;;;;;;5047732;28;20486;-73
2021/11/18 08:14:16;;;;;;;16.00;2.42;;;8.70;99.90;;;;;;5046179;28;20079;-72
2021/11/18 08:16:45;;;;;;;12.70;3.05;;;8.70;99.90;;;;;;5047492;28;20069;-75
2021/11/18 08:19:11;;;;;;;10.88;2.92;;;8.70;99.90;;;;;;5045707;28;20025;-74
2021/11/18 08:21:38;;;;;;;14.68;2.90;;;8.70;99.90;;;;;;5045994;28;20033;-74
2021/11/18 08:24:06;;;;;;;18.13;3.63;;;8.70;99.90;;;;;;5046022;28;20039;-74
2021/11/18 08:26:33;;;;;;;14.25;3.20;;;8.70;99.90;;;;;;5045831;28;20018;-75
2021/11/18 08:28:58;;;;;;;11.98;3.28;;;8.80;99.90;;;;;;5045210;28;20478;-76
2021/11/18 08:31:25;;;;;;;15.80;4.75;;;8.80;99.90;;;;;;5044536;28;20054;-76
2021/11/18 08:33:52;;;;;;;18.02;3.45;;;8.90;99.90;;;;;;5042079;28;20061;-78
2021/11/18 08:36:20;;;;;;;8.48;2.25;;;8.90;99.90;;;;;;5027440;28;20038;-78
2021/11/18 08:38:46;;;;;;;10.20;2.85;;;8.90;99.90;;;;;;5026015;28;20037;-76
2021/11/18 08:41:13;;;;;;;12.68;3.38;;;8.90;99.90;;;;;;5027637;28;20028;-74
2021/11/18 08:43:44;;;;;;;25.08;3.92;;;9.00;99.90;;;;;;5036364;28;20050;-74
2021/11/18 08:46:14;;;;;;;14.50;4.70;;;9.00;99.90;;;;;;5039102;28;20033;-77
2021/11/18 08:48:40;;;;;;;19.30;4.22;;;9.00;99.90;;;;;;5026949;28;20034;-76
2021/11/18 08:51:08;;;;;;;10.98;2.92;;;9.10;99.90;;;;;;5039594;28;20064;-76
2021/11/18 08:53:37;;;;;;;20.08;4.20;;;9.10;99.90;;;;;;5043780;28;20041;-74
2021/11/18 08:56:04;;;;;;;15.95;4.05;;;9.10;99.90;;;;;;5045661;28;20033;-74
2021/11/18 08:58:34;;;;;;;15.95;3.10;;;9.20;99.90;;;;;;5046042;28;20021;-76
2021/11/18 09:01:36;;;;;;;17.67;3.85;;;9.20;99.90;;;;;;5043374;28;20033;-75
2021/11/18 09:04:06;;;;;;;8.25;3.30;;;9.30;99.90;;;;;;5033204;28;20459;-74
2021/11/18 09:06:32;;;;;;;6.78;3.15;;;9.30;99.90;;;;;;5036206;28;20043;-75
2021/11/18 09:08:58;;;;;;;12.18;2.97;;;9.30;99.90;;;;;;5044735;28;20030;-75
2021/11/18 09:11:26;;;;;;;4.25;2.42;;;9.30;99.90;;;;;;5055147;28;20039;-75
2021/11/18 09:13:54;;;;;;;13.73;3.50;;;9.40;99.90;;;;;;5064819;28;20040;-76
2021/11/18 09:16:23;;;;;;;5.72;2.70;;;9.40;99.90;;;;;;5063646;28;20035;-73
2021/11/18 09:18:49;;;;;;;10.13;2.97;;;9.40;99.90;;;;;;5058840;28;20505;-73
2021/11/18 09:21:19;;;;;;;23.27;3.67;;;9.40;99.90;;;;;;5038911;28;20037;-75
2021/11/18 09:23:55;;;;;;;14.15;3.63;;;9.50;99.90;;;;;;5043568;28;20029;-75
2021/11/18 09:26:23;;;;;;;12.05;3.10;;;9.50;99.90;;;;;;5048402;28;20031;-75
2021/11/18 09:28:49;;;;;;;11.05;3.78;;;9.50;99.90;;;;;;5064918;28;20041;-75
2021/11/18 09:31:17;;;;;;;20.90;4.65;;;9.60;99.90;;;;;;5058934;28;20179;-74
2021/11/18 09:33:45;;;;;;;15.48;3.45;;;9.60;99.90;;;;;;5025290;28;20034;-75
2021/11/18 09:36:11;;;;;;;16.77;3.75;;;9.60;99.90;;;;;;5028549;28;20025;-75
2021/11/18 09:38:42;;;;;;;11.90;3.05;;;9.70;99.90;;;;;;5035272;28;20041;-74
2021/11/18 09:41:27;;;;;;;16.92;3.60;;;9.70;99.90;;;;;;5038874;28;20120;-76
2021/11/18 09:44:30;;;;;;;9.93;3.47;;;9.70;99.90;;;;;;5025331;28;20026;-78
2021/11/18 09:47:33;;;;;;;8.15;2.70;;;9.70;99.90;;;;;;5037325;28;20026;-75
2021/11/18 09:50:05;;;;;;;6.38;2.45;;;9.80;99.90;;;;;;5044901;28;20032;-75
2021/11/18 09:52:56;;;;;;;22.08;3.72;;;9.80;99.90;;;;;;5043976;28;20042;-75
2021/11/18 09:55:46;;;;;;;12.30;3.33;;;9.90;99.90;;;;;;5034768;28;20037;-76
2021/11/18 09:58:41;;;;;;;7.95;3.03;;;10.00;99.90;;;;;;5043878;28;20033;-74
2021/11/18 10:01:41;;;;;;;13.52;3.20;;;10.10;99.90;;;;;;5045510;28;20113;-72
2021/11/18 10:04:40;;;;;;;6.97;2.75;;;10.10;99.90;;;;;;5037239;28;20417;-75
2021/11/18 10:07:19;;;;;;;10.05;2.58;;;10.20;99.90;;;;;;5044094;28;20098;-76
2021/11/18 10:10:01;;;;;;;13.50;3.00;;;10.20;99.90;;;;;;5039446;28;20037;-74
2021/11/18 10:13:21;;;;;;;20.73;2.53;;;10.30;99.90;;;;;;5043702;28;20506;-74
2021/11/18 10:16:14;;;;;;;15.32;3.20;;;10.30;99.90;;;;;;5041148;28;20052;-74
2021/11/18 10:18:44;;;;;;;11.43;3.20;;;10.40;99.90;;;;;;5034302;28;20494;-76
2021/11/18 10:21:26;;;;;;;8.20;2.28;;;10.40;99.90;;;;;;5024457;28;20022;-77
2021/11/18 10:24:10;;;;;;;13.75;3.50;;;10.40;99.90;;;;;;5029879;28;20022;-75
2021/11/18 10:26:42;;;;;;;11.73;2.30;;;10.30;99.90;;;;;;5030902;28;20025;-77
2021/11/18 10:29:17;;;;;;;15.05;2.90;;;10.30;99.90;;;;;;5042470;28;20080;-76
2021/11/18 10:31:55;;;;;;;18.42;3.63;;;10.40;99.90;;;;;;5044212;28;20088;-73
2021/11/18 10:34:43;;;;;;;4.70;2.47;;;10.40;99.90;;;;;;5058503;28;20030;-73
2021/11/18 10:37:25;;;;;;;4.85;2.55;;;10.40;99.90;;;;;;5045020;28;20060;-77
2021/11/18 10:39:56;;;;;;;9.77;2.70;;;10.40;99.90;;;;;;5043447;28;20048;-75
2021/11/18 10:42:36;;;;;;;12.13;3.40;;;10.40;99.90;;;;;;5044960;28;20029;-77
2021/11/18 10:45:12;;;;;;;6.30;2.42;;;10.40;99.90;;;;;;5043837;28;20088;-77
2021/11/18 10:48:00;;;;;;;11.50;1.98;;;10.40;99.90;;;;;;5039073;28;20033;-77
2021/11/18 10:50:28;;;;;;;11.23;3.58;;;10.40;99.90;;;;;;5040056;28;20501;-77
2021/11/18 10:53:20;;;;;;;14.68;2.97;;;10.40;99.90;;;;;;5024689;28;20053;-80
2021/11/18 10:55:52;;;;;;;17.67;4.22;;;10.40;99.90;;;;;;5023887;28;20030;-75
2021/11/18 10:58:24;;;;;;;7.43;2.65;;;10.30;99.90;;;;;;5027731;28;20112;-78
2021/11/18 11:00:55;;;;;;;13.80;2.85;;;10.30;99.90;;;;;;5044619;28;20045;-78
2021/11/18 11:03:35;;;;;;;21.23;4.60;;;10.30;99.90;;;;;;5043306;28;20055;-75
2021/11/18 11:06:25;;;;;;;9.35;3.33;;;10.30;99.90;;;;;;5036532;28;20034;-79
2021/11/18 11:09:10;;;;;;;7.97;2.80;;;10.30;99.90;;;;;;5036442;28;20041;-78
2021/11/18 11:12:03;;;;;;;7.10;2.95;;;10.40;99.90;;;;;;5040881;28;20033;-79
2021/11/18 11:14:40;;;;;;;7.47;2.58;;;10.30;99.90;;;;;;5038747;28;20029;-76
2021/11/18 11:17:27;;;;;;;14.30;3.22;;;10.40;99.90;;;;;;5037957;28;20018;-76
2021/11/18 11:19:58;;;;;;;18.90;3.25;;;10.40;99.90;;;;;;5056168;28;20029;-78
2021/11/18 11:22:33;;;;;;;7.65;3.00;;;10.40;99.90;;;;;;5044757;28;20041;-78
2021/11/18 11:25:11;;;;;;;19.60;2.33;;;10.40;99.90;;;;;;5042850;28;20372;-73
2021/11/18 11:28:21;;;;;;;9.68;2.35;;;10.30;99.90;;;;;;5041634;28;20490;-76
2021/11/18 11:31:34;;;;;;;15.27;3.53;;;10.30;99.90;;;;;;5050185;28;20037;-76
2021/11/18 11:34:17;;;;;;;5.75;2.33;;;10.40;99.90;;;;;;5032704;28;20046;-70
2021/11/18 11:36:55;;;;;;;18.13;3.45;;;10.40;99.90;;;;;;5028305;28;20022;-77
2021/11/18 11:39:42;;;;;;;17.98;2.47;;;10.30;99.90;;;;;;5028190;28;20033;-72
2021/11/18 11:42:30;;;;;;;9.30;3.10;;;10.40;99.90;;;;;;5026939;28;20026;-75
2021/11/18 11:45:20;;;;;;;10.82;2.58;;;10.40;99.90;;;;;;5026666;28;20060;-73
2021/11/18 11:47:54;;;;;;;12.00;3.20;;;10.50;99.90;;;;;;5026807;28;20064;-75
2021/11/18 11:50:29;;;;;;;21.83;3.38;;;10.50;99.90;;;;;;5026707;28;20034;-74
2021/11/18 11:53:01;;;;;;;5.90;2.90;;;10.50;99.90;;;;;;5028347;28;20030;-75
2021/11/18 11:55:30;;;;;;;15.48;2.72;;;10.50;99.90;;;;;;5028257;28;20037;-74
2021/11/18 11:58:23;;;;;;;10.10;2.65;;;10.50;99.90;;;;;;5039080;28;20033;-75
2021/11/18 12:01:14;;;;;;;10.98;2.47;;;10.60;99.90;;;;;;5046549;28;20038;-75
2021/11/18 12:03:55;;;;;;;11.90;3.45;;;10.60;99.90;;;;;;5026324;28;20034;-75
2021/11/18 12:06:32;;;;;;;17.45;3.38;;;10.60;99.90;;;;;;5027598;28;20057;-77
2021/11/18 12:09:10;;;;;;;3.05;1.27;;;10.60;99.90;;;;;;5026180;28;20038;-73
2021/11/18 12:12:04;;;;;;;5.38;2.70;;;10.50;99.90;;;;;;5026374;28;20033;-73
2021/11/18 12:14:42;;;;;;;11.25;3.42;;;10.50;99.90;;;;;;5027593;28;20056;-75
2021/11/18 12:17:25;;;;;;;13.07;2.53;;;10.40;99.90;;;;;;5026053;28;20112;-75
2021/11/18 12:20:11;;;;;;;4.40;2.72;;;10.40;99.90;;;;;;5027674;28;20029;-75
2021/11/18 12:22:37;;;;;;;20.75;4.68;;;10.30;99.90;;;;;;5027446;28;20037;-77
2021/11/18 12:25:22;;;;;;;17.50;4.22;;;10.20;99.90;;;;;;5027190;28;20022;-76
2021/11/18 12:28:12;;;;;;;7.65;2.80;;;10.20;99.90;;;;;;5026520;28;20390;-76
2021/11/18 12:30:47;;;;;;;19.33;3.42;;;10.10;99.90;;;;;;5043873;28;20025;-75
2021/11/18 12:33:19;;;;;;;13.77;2.83;;;10.10;99.90;;;;;;5044503;28;20521;-79
2021/11/18 12:36:10;;;;;;;5.28;2.75;;;10.10;99.90;;;;;;5043964;28;20505;-76
2021/11/18 12:38:58;;;;;;;26.33;4.05;;;10.10;99.90;;;;;;5034883;28;20053;-75
2021/11/18 12:41:40;;;;;;;18.70;3.95;;;10.10;99.90;;;;;;5025468;28;20030;-75
2021/11/18 12:44:37;;;;;;;9.50;3.10;;;10.10;99.90;;;;;;5028658;28;20029;-76
2021/11/18 12:47:20;;;;;;;12.45;4.53;;;10.10;99.90;;;;;;5027020;28;20034;-78
2021/11/18 12:49:52;;;;;;;10.90;3.60;;;10.20;99.90;;;;;;5026834;28;20036;-78
2021/11/18 12:52:31;;;;;;;8.38;2.38;;;10.20;99.90;;;;;;5026897;28;20490;-77
2021/11/18 12:55:13;;;;;;;18.45;5.18;;;10.20;99.90;;;;;;5025627;28;20037;-76
2021/11/18 12:58:02;;;;;;;10.38;4.13;;;10.30;99.90;;;;;;5026792;28;20097;-74
2021/11/18 13:00:40;;;;;;;12.15;4.07;;;10.40;99.90;;;;;;5026846;28;20033;-76
2021/11/18 13:03:08;;;;;;;12.68;4.32;;;10.40;99.90;;;;;;5025518;28;20128;-79
2021/11/18 13:05:49;;;;;;;20.10;4.28;;;10.40;99.90;;;;;;5025136;28;20049;-75
2021/11/18 13:08:54;;;;;;;20.60;5.35;;;10.40;99.90;;;;;;5039911;28;20032;-76
2021/11/18 13:11:26;;;;;;;20.23;5.07;;;10.50;99.90;;;;;;5061694;28;20029;-73